sensor_id;sensor_type;location;lat;lon;timestamp;P1;durP1;ratioP1;P2;durP2;ratioP2
54899;SDS011;40801;41.924;25.562;2023-07-30T00:01:57;7.53;;;6.93;;
54899;SDS011;40801;41.924;25.562;2023-07-30T00:04:23;8.10;;;6.10;;
54899;SDS011;40801;41.924;25.562;2023-07-30T00:06:48;8.35;;;6.80;;
54899;SDS011;40801;41.924;25.562;2023-07-30T00:09:14;6.90;;;6.25;;
54899;SDS011;40801;41.924;25.562;2023-07-30T00:11:39;6.95;;;6.30;;
54899;SDS011;40801;41.924;25.562;2023-07-30T00:14:05;7.68;;;6.85;;
54899;SDS011;40801;41.924;25.562;2023-07-30T00:16:30;7.13;;;6.55;;
54899;SDS011;40801;41.924;25.562;2023-07-30T00:18:56;6.97;;;6.30;;
54899;SDS011;40801;41.924;25.562;2023-07-30T00:21:21;7.18;;;6.45;;
54899;SDS011;40801;41.924;25.562;2023-07-30T00:23:47;6.50;;;5.95;;
54899;SDS011;40801;41.924;25.562;2023-07-30T00:26:12;6.70;;;6.20;;
54899;SDS011;40801;41.924;25.562;2023-07-30T00:28:38;6.05;;;5.50;;
54899;SDS011;40801;41.924;25.562;2023-07-30T00:31:03;6.40;;;5.80;;
54899;SDS011;40801;41.924;25.562;2023-07-30T00:33:29;7.05;;;6.45;;
54899;SDS011;40801;41.924;25.562;2023-07-30T00:35:54;6.97;;;6.35;;
54899;SDS011;40801;41.924;25.562;2023-07-30T00:38:19;7.25;;;6.60;;
54899;SDS011;40801;41.924;25.562;2023-07-30T00:40:45;6.93;;;6.32;;
54899;SDS011;40801;41.924;25.562;2023-07-30T00:43:10;6.97;;;6.38;;
54899;SDS011;40801;41.924;25.562;2023-07-30T00:45:36;7.30;;;6.00;;
54899;SDS011;40801;41.924;25.562;2023-07-30T00:48:05;6.20;;;5.70;;
54899;SDS011;40801;41.924;25.562;2023-07-30T00:50:30;6.70;;;6.07;;
54899;SDS011;40801;41.924;25.562;2023-07-30T00:52:57;6.65;;;6.15;;
54899;SDS011;40801;41.924;25.562;2023-07-30T00:55:22;6.57;;;6.18;;
54899;SDS011;40801;41.924;25.562;2023-07-30T00:57:48;7.18;;;6.57;;
54899;SDS011;40801;41.924;25.562;2023-07-30T01:00:13;6.63;;;6.03;;
54899;SDS011;40801;41.924;25.562;2023-07-30T01:02:39;7.60;;;6.88;;
54899;SDS011;40801;41.924;25.562;2023-07-30T01:05:05;6.78;;;6.28;;
54899;SDS011;40801;41.924;25.562;2023-07-30T01:07:31;7.10;;;6.57;;
54899;SDS011;40801;41.924;25.562;2023-07-30T01:09:57;7.15;;;6.45;;
54899;SDS011;40801;41.924;25.562;2023-07-30T01:12:22;7.22;;;6.45;;
54899;SDS011;40801;41.924;25.562;2023-07-30T01:14:48;7.07;;;6.18;;
54899;SDS011;40801;41.924;25.562;2023-07-30T01:17:15;6.65;;;6.05;;
54899;SDS011;40801;41.924;25.562;2023-07-30T01:19:41;6.38;;;5.97;;
54899;SDS011;40801;41.924;25.562;2023-07-30T01:22:06;6.53;;;6.05;;
54899;SDS011;40801;41.924;25.562;2023-07-30T01:24:32;8.57;;;6.10;;
54899;SDS011;40801;41.924;25.562;2023-07-30T01:27:04;6.57;;;6.05;;
54899;SDS011;40801;41.924;25.562;2023-07-30T01:29:45;6.50;;;6.10;;
54899;SDS011;40801;41.924;25.562;2023-07-30T01:32:16;6.45;;;5.95;;
54899;SDS011;40801;41.924;25.562;2023-07-30T01:34:45;6.63;;;6.03;;
54899;SDS011;40801;41.924;25.562;2023-07-30T01:37:14;6.05;;;5.65;;
54899;SDS011;40801;41.924;25.562;2023-07-30T01:39:40;6.78;;;6.10;;
54899;SDS011;40801;41.924;25.562;2023-07-30T01:42:07;6.03;;;5.63;;
54899;SDS011;40801;41.924;25.562;2023-07-30T01:44:32;5.72;;;5.32;;
54899;SDS011;40801;41.924;25.562;2023-07-30T01:46:58;6.00;;;5.60;;
54899;SDS011;40801;41.924;25.562;2023-07-30T01:49:23;7.05;;;6.38;;
54899;SDS011;40801;41.924;25.562;2023-07-30T01:51:48;6.53;;;6.03;;
54899;SDS011;40801;41.924;25.562;2023-07-30T01:54:14;6.78;;;6.18;;
54899;SDS011;40801;41.924;25.562;2023-07-30T01:56:39;6.80;;;5.97;;
54899;SDS011;40801;41.924;25.562;2023-07-30T01:59:05;6.75;;;6.20;;
54899;SDS011;40801;41.924;25.562;2023-07-30T02:01:30;6.45;;;6.03;;
54899;SDS011;40801;41.924;25.562;2023-07-30T02:03:56;6.60;;;6.10;;
54899;SDS011;40801;41.924;25.562;2023-07-30T02:06:21;5.97;;;5.57;;
54899;SDS011;40801;41.924;25.562;2023-07-30T02:08:46;6.57;;;6.18;;
54899;SDS011;40801;41.924;25.562;2023-07-30T02:11:12;6.40;;;5.90;;
54899;SDS011;40801;41.924;25.562;2023-07-30T02:13:55;6.97;;;6.25;;
54899;SDS011;40801;41.924;25.562;2023-07-30T02:16:21;6.43;;;5.93;;
54899;SDS011;40801;41.924;25.562;2023-07-30T02:18:46;6.40;;;6.00;;
54899;SDS011;40801;41.924;25.562;2023-07-30T02:21:12;6.25;;;5.75;;
54899;SDS011;40801;41.924;25.562;2023-07-30T02:23:38;6.53;;;6.03;;
54899;SDS011;40801;41.924;25.562;2023-07-30T02:26:03;7.18;;;6.53;;
54899;SDS011;40801;41.924;25.562;2023-07-30T02:28:28;6.93;;;6.43;;
54899;SDS011;40801;41.924;25.562;2023-07-30T02:30:54;6.00;;;5.60;;
54899;SDS011;40801;41.924;25.562;2023-07-30T02:33:19;5.78;;;5.25;;
54899;SDS011;40801;41.924;25.562;2023-07-30T02:35:44;5.43;;;5.13;;
54899;SDS011;40801;41.924;25.562;2023-07-30T02:38:10;6.43;;;5.97;;
54899;SDS011;40801;41.924;25.562;2023-07-30T02:40:35;6.10;;;5.60;;
54899;SDS011;40801;41.924;25.562;2023-07-30T02:43:01;5.63;;;5.32;;
54899;SDS011;40801;41.924;25.562;2023-07-30T02:45:26;6.20;;;5.80;;
54899;SDS011;40801;41.924;25.562;2023-07-30T02:47:52;6.05;;;5.55;;
54899;SDS011;40801;41.924;25.562;2023-07-30T02:50:17;5.55;;;5.25;;
54899;SDS011;40801;41.924;25.562;2023-07-30T02:52:43;5.75;;;5.35;;
54899;SDS011;40801;41.924;25.562;2023-07-30T02:55:08;6.38;;;5.88;;
54899;SDS011;40801;41.924;25.562;2023-07-30T02:57:33;6.40;;;5.78;;
54899;SDS011;40801;41.924;25.562;2023-07-30T02:59:59;5.88;;;5.40;;
54899;SDS011;40801;41.924;25.562;2023-07-30T03:02:24;6.30;;;5.90;;
54899;SDS011;40801;41.924;25.562;2023-07-30T03:04:50;6.03;;;5.60;;
54899;SDS011;40801;41.924;25.562;2023-07-30T03:07:15;8.52;;;6.28;;
54899;SDS011;40801;41.924;25.562;2023-07-30T03:09:41;6.32;;;5.82;;
54899;SDS011;40801;41.924;25.562;2023-07-30T03:12:06;6.32;;;6.03;;
54899;SDS011;40801;41.924;25.562;2023-07-30T03:14:32;6.22;;;5.40;;
54899;SDS011;40801;41.924;25.562;2023-07-30T03:16:57;5.88;;;5.47;;
54899;SDS011;40801;41.924;25.562;2023-07-30T03:19:22;5.88;;;5.50;;
54899;SDS011;40801;41.924;25.562;2023-07-30T03:21:48;6.05;;;5.65;;
54899;SDS011;40801;41.924;25.562;2023-07-30T03:24:13;6.60;;;6.20;;
54899;SDS011;40801;41.924;25.562;2023-07-30T03:26:38;6.45;;;5.93;;
54899;SDS011;40801;41.924;25.562;2023-07-30T03:29:04;6.18;;;5.88;;
54899;SDS011;40801;41.924;25.562;2023-07-30T03:31:29;6.15;;;5.78;;
54899;SDS011;40801;41.924;25.562;2023-07-30T03:33:55;6.22;;;5.82;;
54899;SDS011;40801;41.924;25.562;2023-07-30T03:36:20;6.78;;;6.32;;
54899;SDS011;40801;41.924;25.562;2023-07-30T03:38:45;6.65;;;5.97;;
54899;SDS011;40801;41.924;25.562;2023-07-30T03:41:11;6.68;;;6.07;;
54899;SDS011;40801;41.924;25.562;2023-07-30T03:43:36;7.43;;;6.80;;
54899;SDS011;40801;41.924;25.562;2023-07-30T03:46:02;6.80;;;6.40;;
54899;SDS011;40801;41.924;25.562;2023-07-30T03:48:27;6.95;;;6.35;;
54899;SDS011;40801;41.924;25.562;2023-07-30T03:50:53;6.95;;;6.30;;
54899;SDS011;40801;41.924;25.562;2023-07-30T03:53:19;6.60;;;6.00;;
54899;SDS011;40801;41.924;25.562;2023-07-30T03:55:45;6.03;;;5.70;;
54899;SDS011;40801;41.924;25.562;2023-07-30T03:58:11;7.18;;;6.10;;
54899;SDS011;40801;41.924;25.562;2023-07-30T04:00:36;5.63;;;5.10;;
54899;SDS011;40801;41.924;25.562;2023-07-30T04:03:02;6.88;;;6.38;;
54899;SDS011;40801;41.924;25.562;2023-07-30T04:05:27;6.45;;;5.90;;
54899;SDS011;40801;41.924;25.562;2023-07-30T04:07:53;5.82;;;5.45;;
54899;SDS011;40801;41.924;25.562;2023-07-30T04:10:18;6.00;;;5.60;;
54899;SDS011;40801;41.924;25.562;2023-07-30T04:12:44;6.13;;;5.68;;
54899;SDS011;40801;41.924;25.562;2023-07-30T04:15:10;5.70;;;5.32;;
54899;SDS011;40801;41.924;25.562;2023-07-30T04:17:36;6.15;;;5.72;;
54899;SDS011;40801;41.924;25.562;2023-07-30T04:20:01;6.10;;;5.60;;
54899;SDS011;40801;41.924;25.562;2023-07-30T04:22:27;6.03;;;5.53;;
54899;SDS011;40801;41.924;25.562;2023-07-30T04:24:53;5.72;;;5.32;;
54899;SDS011;40801;41.924;25.562;2023-07-30T04:27:18;5.65;;;5.35;;
54899;SDS011;40801;41.924;25.562;2023-07-30T04:29:43;5.88;;;5.47;;
54899;SDS011;40801;41.924;25.562;2023-07-30T04:32:09;5.68;;;5.38;;
54899;SDS011;40801;41.924;25.562;2023-07-30T04:34:34;6.15;;;5.85;;
54899;SDS011;40801;41.924;25.562;2023-07-30T04:37:00;6.40;;;6.00;;
54899;SDS011;40801;41.924;25.562;2023-07-30T04:39:27;6.20;;;5.70;;
54899;SDS011;40801;41.924;25.562;2023-07-30T04:41:52;8.32;;;7.72;;
54899;SDS011;40801;41.924;25.562;2023-07-30T04:44:17;6.10;;;5.60;;
54899;SDS011;40801;41.924;25.562;2023-07-30T04:46:43;6.07;;;5.65;;
54899;SDS011;40801;41.924;25.562;2023-07-30T04:49:08;6.10;;;5.60;;
54899;SDS011;40801;41.924;25.562;2023-07-30T04:51:33;6.88;;;6.18;;
54899;SDS011;40801;41.924;25.562;2023-07-30T04:53:59;6.05;;;5.65;;
54899;SDS011;40801;41.924;25.562;2023-07-30T04:56:24;5.68;;;5.20;;
54899;SDS011;40801;41.924;25.562;2023-07-30T04:58:51;12.18;;;11.18;;
54899;SDS011;40801;41.924;25.562;2023-07-30T05:01:16;6.03;;;5.63;;
54899;SDS011;40801;41.924;25.562;2023-07-30T05:03:42;6.40;;;5.80;;
54899;SDS011;40801;41.924;25.562;2023-07-30T05:06:07;5.60;;;5.22;;
54899;SDS011;40801;41.924;25.562;2023-07-30T05:08:33;5.43;;;4.97;;
54899;SDS011;40801;41.924;25.562;2023-07-30T05:10:58;6.00;;;5.32;;
54899;SDS011;40801;41.924;25.562;2023-07-30T05:13:23;6.13;;;5.72;;
54899;SDS011;40801;41.924;25.562;2023-07-30T05:15:49;5.97;;;5.32;;
54899;SDS011;40801;41.924;25.562;2023-07-30T05:18:14;5.82;;;5.40;;
54899;SDS011;40801;41.924;25.562;2023-07-30T05:20:40;6.45;;;6.05;;
54899;SDS011;40801;41.924;25.562;2023-07-30T05:23:05;5.50;;;5.10;;
54899;SDS011;40801;41.924;25.562;2023-07-30T05:25:32;7.38;;;6.88;;
54899;SDS011;40801;41.924;25.562;2023-07-30T05:27:57;11.43;;;10.50;;
54899;SDS011;40801;41.924;25.562;2023-07-30T05:30:23;5.80;;;5.40;;
54899;SDS011;40801;41.924;25.562;2023-07-30T05:32:48;6.38;;;5.40;;
54899;SDS011;40801;41.924;25.562;2023-07-30T05:35:13;5.53;;;5.03;;
54899;SDS011;40801;41.924;25.562;2023-07-30T05:37:39;5.55;;;5.13;;
54899;SDS011;40801;41.924;25.562;2023-07-30T05:40:05;5.88;;;5.28;;
54899;SDS011;40801;41.924;25.562;2023-07-30T05:42:31;5.95;;;4.80;;
54899;SDS011;40801;41.924;25.562;2023-07-30T05:44:57;7.65;;;5.18;;
54899;SDS011;40801;41.924;25.562;2023-07-30T05:47:22;5.80;;;5.20;;
54899;SDS011;40801;41.924;25.562;2023-07-30T05:49:48;5.15;;;4.72;;
54899;SDS011;40801;41.924;25.562;2023-07-30T05:52:13;5.30;;;4.80;;
54899;SDS011;40801;41.924;25.562;2023-07-30T05:54:38;10.68;;;9.73;;
54899;SDS011;40801;41.924;25.562;2023-07-30T05:57:04;22.50;;;20.27;;
54899;SDS011;40801;41.924;25.562;2023-07-30T05:59:29;7.35;;;4.93;;
54899;SDS011;40801;41.924;25.562;2023-07-30T06:01:55;5.35;;;4.85;;
54899;SDS011;40801;41.924;25.562;2023-07-30T06:04:21;5.07;;;4.68;;
54899;SDS011;40801;41.924;25.562;2023-07-30T06:06:46;5.18;;;4.85;;
54899;SDS011;40801;41.924;25.562;2023-07-30T06:09:12;4.78;;;4.35;;
54899;SDS011;40801;41.924;25.562;2023-07-30T06:11:37;6.03;;;4.90;;
54899;SDS011;40801;41.924;25.562;2023-07-30T06:14:03;5.15;;;4.65;;
54899;SDS011;40801;41.924;25.562;2023-07-30T06:16:28;5.20;;;4.80;;
54899;SDS011;40801;41.924;25.562;2023-07-30T06:18:53;5.20;;;4.78;;
54899;SDS011;40801;41.924;25.562;2023-07-30T06:21:19;4.90;;;4.60;;
54899;SDS011;40801;41.924;25.562;2023-07-30T06:23:44;6.25;;;4.35;;
54899;SDS011;40801;41.924;25.562;2023-07-30T06:26:09;4.85;;;4.13;;
54899;SDS011;40801;41.924;25.562;2023-07-30T06:28:35;4.82;;;4.47;;
54899;SDS011;40801;41.924;25.562;2023-07-30T06:31:01;4.70;;;4.30;;
54899;SDS011;40801;41.924;25.562;2023-07-30T06:33:27;5.53;;;4.65;;
54899;SDS011;40801;41.924;25.562;2023-07-30T06:35:52;5.22;;;4.82;;
54899;SDS011;40801;41.924;25.562;2023-07-30T06:38:36;8.68;;;7.82;;
54899;SDS011;40801;41.924;25.562;2023-07-30T06:41:01;5.03;;;4.50;;
54899;SDS011;40801;41.924;25.562;2023-07-30T06:43:27;4.40;;;4.10;;
54899;SDS011;40801;41.924;25.562;2023-07-30T06:45:53;4.90;;;4.50;;
54899;SDS011;40801;41.924;25.562;2023-07-30T06:48:19;5.25;;;4.72;;
54899;SDS011;40801;41.924;25.562;2023-07-30T06:50:44;4.55;;;4.25;;
54899;SDS011;40801;41.924;25.562;2023-07-30T06:53:10;5.47;;;4.22;;
54899;SDS011;40801;41.924;25.562;2023-07-30T06:55:35;5.45;;;5.05;;
54899;SDS011;40801;41.924;25.562;2023-07-30T06:58:00;5.90;;;5.40;;
54899;SDS011;40801;41.924;25.562;2023-07-30T07:00:26;4.93;;;4.53;;
54899;SDS011;40801;41.924;25.562;2023-07-30T07:02:51;5.07;;;4.68;;
54899;SDS011;40801;41.924;25.562;2023-07-30T07:05:17;4.40;;;4.00;;
54899;SDS011;40801;41.924;25.562;2023-07-30T07:07:42;5.40;;;4.85;;
54899;SDS011;40801;41.924;25.562;2023-07-30T07:10:07;5.40;;;4.90;;
54899;SDS011;40801;41.924;25.562;2023-07-30T07:12:35;5.07;;;4.50;;
54899;SDS011;40801;41.924;25.562;2023-07-30T07:15:00;4.93;;;4.13;;
54899;SDS011;40801;41.924;25.562;2023-07-30T07:17:26;5.55;;;3.97;;
54899;SDS011;40801;41.924;25.562;2023-07-30T07:19:53;4.65;;;4.20;;
54899;SDS011;40801;41.924;25.562;2023-07-30T07:22:18;4.35;;;3.95;;
54899;SDS011;40801;41.924;25.562;2023-07-30T07:24:44;4.88;;;4.50;;
54899;SDS011;40801;41.924;25.562;2023-07-30T07:27:10;4.60;;;4.30;;
54899;SDS011;40801;41.924;25.562;2023-07-30T07:29:36;4.35;;;3.92;;
54899;SDS011;40801;41.924;25.562;2023-07-30T07:32:20;4.40;;;4.10;;
54899;SDS011;40801;41.924;25.562;2023-07-30T07:34:46;4.57;;;4.20;;
54899;SDS011;40801;41.924;25.562;2023-07-30T07:37:13;6.82;;;4.55;;
54899;SDS011;40801;41.924;25.562;2023-07-30T07:39:40;6.75;;;4.45;;
54899;SDS011;40801;41.924;25.562;2023-07-30T07:42:06;4.03;;;3.65;;
54899;SDS011;40801;41.924;25.562;2023-07-30T07:44:31;5.75;;;5.25;;
54899;SDS011;40801;41.924;25.562;2023-07-30T07:46:57;4.13;;;3.83;;
54899;SDS011;40801;41.924;25.562;2023-07-30T07:49:22;4.57;;;4.15;;
54899;SDS011;40801;41.924;25.562;2023-07-30T07:51:47;5.10;;;4.25;;
54899;SDS011;40801;41.924;25.562;2023-07-30T07:54:13;4.57;;;4.10;;
54899;SDS011;40801;41.924;25.562;2023-07-30T07:56:38;5.25;;;3.97;;
54899;SDS011;40801;41.924;25.562;2023-07-30T07:59:04;4.45;;;4.07;;
54899;SDS011;40801;41.924;25.562;2023-07-30T08:01:29;4.03;;;3.63;;
54899;SDS011;40801;41.924;25.562;2023-07-30T08:03:55;9.57;;;3.92;;
54899;SDS011;40801;41.924;25.562;2023-07-30T08:06:20;5.55;;;3.60;;
54899;SDS011;40801;41.924;25.562;2023-07-30T08:08:45;5.70;;;4.65;;
54899;SDS011;40801;41.924;25.562;2023-07-30T08:11:11;3.95;;;3.70;;
54899;SDS011;40801;41.924;25.562;2023-07-30T08:13:36;3.80;;;3.50;;
54899;SDS011;40801;41.924;25.562;2023-07-30T08:16:02;4.78;;;4.30;;
54899;SDS011;40801;41.924;25.562;2023-07-30T08:18:28;3.53;;;3.25;;
54899;SDS011;40801;41.924;25.562;2023-07-30T08:20:53;3.85;;;3.55;;
54899;SDS011;40801;41.924;25.562;2023-07-30T08:23:19;3.33;;;2.92;;
54899;SDS011;40801;41.924;25.562;2023-07-30T08:25:44;4.32;;;3.35;;
54899;SDS011;40801;41.924;25.562;2023-07-30T08:28:10;7.40;;;6.70;;
54899;SDS011;40801;41.924;25.562;2023-07-30T08:30:35;4.15;;;3.72;;
54899;SDS011;40801;41.924;25.562;2023-07-30T08:33:01;5.85;;;3.33;;
54899;SDS011;40801;41.924;25.562;2023-07-30T08:35:26;3.20;;;3.00;;
54899;SDS011;40801;41.924;25.562;2023-07-30T08:37:52;4.03;;;3.38;;
54899;SDS011;40801;41.924;25.562;2023-07-30T08:40:17;3.50;;;2.92;;
54899;SDS011;40801;41.924;25.562;2023-07-30T08:42:43;5.15;;;4.72;;
54899;SDS011;40801;41.924;25.562;2023-07-30T08:45:08;3.97;;;3.42;;
54899;SDS011;40801;41.924;25.562;2023-07-30T08:47:34;13.63;;;11.63;;
54899;SDS011;40801;41.924;25.562;2023-07-30T08:50:00;3.30;;;3.10;;
54899;SDS011;40801;41.924;25.562;2023-07-30T08:52:26;11.32;;;10.20;;
54899;SDS011;40801;41.924;25.562;2023-07-30T08:54:54;3.85;;;3.40;;
54899;SDS011;40801;41.924;25.562;2023-07-30T08:57:22;3.05;;;2.83;;
54899;SDS011;40801;41.924;25.562;2023-07-30T08:59:53;3.75;;;3.40;;
54899;SDS011;40801;41.924;25.562;2023-07-30T09:02:24;3.05;;;2.85;;
54899;SDS011;40801;41.924;25.562;2023-07-30T09:04:56;3.20;;;2.90;;
54899;SDS011;40801;41.924;25.562;2023-07-30T09:07:24;3.50;;;3.20;;
54899;SDS011;40801;41.924;25.562;2023-07-30T09:09:50;3.10;;;2.90;;
54899;SDS011;40801;41.924;25.562;2023-07-30T09:12:16;4.22;;;3.03;;
54899;SDS011;40801;41.924;25.562;2023-07-30T09:14:41;3.92;;;2.97;;
54899;SDS011;40801;41.924;25.562;2023-07-30T09:17:10;3.13;;;2.92;;
54899;SDS011;40801;41.924;25.562;2023-07-30T09:19:40;3.42;;;2.90;;
54899;SDS011;40801;41.924;25.562;2023-07-30T09:22:05;3.00;;;2.53;;
54899;SDS011;40801;41.924;25.562;2023-07-30T09:24:32;4.18;;;3.50;;
54899;SDS011;40801;41.924;25.562;2023-07-30T09:26:57;3.88;;;2.63;;
54899;SDS011;40801;41.924;25.562;2023-07-30T09:29:26;3.33;;;3.00;;
54899;SDS011;40801;41.924;25.562;2023-07-30T09:31:52;4.20;;;2.72;;
54899;SDS011;40801;41.924;25.562;2023-07-30T09:34:21;3.35;;;3.05;;
54899;SDS011;40801;41.924;25.562;2023-07-30T09:36:52;2.75;;;2.55;;
54899;SDS011;40801;41.924;25.562;2023-07-30T09:39:19;3.30;;;2.60;;
54899;SDS011;40801;41.924;25.562;2023-07-30T09:41:49;2.95;;;2.75;;
54899;SDS011;40801;41.924;25.562;2023-07-30T09:44:16;9.77;;;3.42;;
54899;SDS011;40801;41.924;25.562;2023-07-30T09:46:44;2.83;;;2.60;;
54899;SDS011;40801;41.924;25.562;2023-07-30T09:49:11;2.78;;;2.47;;
54899;SDS011;40801;41.924;25.562;2023-07-30T09:51:37;2.67;;;2.15;;
54899;SDS011;40801;41.924;25.562;2023-07-30T09:54:06;3.13;;;2.80;;
54899;SDS011;40801;41.924;25.562;2023-07-30T09:56:34;7.95;;;7.18;;
54899;SDS011;40801;41.924;25.562;2023-07-30T09:59:00;4.33;;;4.03;;
54899;SDS011;40801;41.924;25.562;2023-07-30T10:01:26;4.25;;;2.70;;
54899;SDS011;40801;41.924;25.562;2023-07-30T10:03:54;2.67;;;2.10;;
54899;SDS011;40801;41.924;25.562;2023-07-30T10:06:21;2.75;;;2.55;;
54899;SDS011;40801;41.924;25.562;2023-07-30T10:08:54;4.55;;;2.50;;
54899;SDS011;40801;41.924;25.562;2023-07-30T10:11:22;2.45;;;2.25;;
54899;SDS011;40801;41.924;25.562;2023-07-30T10:13:48;2.70;;;2.58;;
54899;SDS011;40801;41.924;25.562;2023-07-30T10:16:14;2.53;;;2.33;;
54899;SDS011;40801;41.924;25.562;2023-07-30T10:18:41;2.13;;;2.03;;
54899;SDS011;40801;41.924;25.562;2023-07-30T10:21:08;2.00;;;1.90;;
54899;SDS011;40801;41.924;25.562;2023-07-30T10:23:35;2.30;;;2.10;;
54899;SDS011;40801;41.924;25.562;2023-07-30T10:26:10;2.15;;;2.00;;
54899;SDS011;40801;41.924;25.562;2023-07-30T10:28:36;2.70;;;2.47;;
54899;SDS011;40801;41.924;25.562;2023-07-30T10:31:07;3.03;;;2.08;;
54899;SDS011;40801;41.924;25.562;2023-07-30T10:33:52;2.25;;;2.15;;
54899;SDS011;40801;41.924;25.562;2023-07-30T10:36:20;2.47;;;2.35;;
54899;SDS011;40801;41.924;25.562;2023-07-30T10:38:56;3.25;;;2.58;;
54899;SDS011;40801;41.924;25.562;2023-07-30T10:41:21;2.15;;;2.05;;
54899;SDS011;40801;41.924;25.562;2023-07-30T10:43:47;2.95;;;2.22;;
54899;SDS011;40801;41.924;25.562;2023-07-30T10:46:15;2.38;;;2.17;;
54899;SDS011;40801;41.924;25.562;2023-07-30T10:48:42;2.72;;;2.25;;
54899;SDS011;40801;41.924;25.562;2023-07-30T10:51:12;2.10;;;2.00;;
54899;SDS011;40801;41.924;25.562;2023-07-30T10:53:38;2.85;;;2.45;;
54899;SDS011;40801;41.924;25.562;2023-07-30T10:56:07;2.42;;;2.13;;
54899;SDS011;40801;41.924;25.562;2023-07-30T10:58:34;1.88;;;1.77;;
54899;SDS011;40801;41.924;25.562;2023-07-30T11:03:49;3.03;;;2.67;;
54899;SDS011;40801;41.924;25.562;2023-07-30T11:06:21;2.35;;;2.25;;
54899;SDS011;40801;41.924;25.562;2023-07-30T11:08:50;2.50;;;2.30;;
54899;SDS011;40801;41.924;25.562;2023-07-30T11:11:16;2.40;;;2.22;;
54899;SDS011;40801;41.924;25.562;2023-07-30T11:13:45;2.08;;;1.73;;
54899;SDS011;40801;41.924;25.562;2023-07-30T11:16:12;2.50;;;2.38;;
54899;SDS011;40801;41.924;25.562;2023-07-30T11:18:38;1.98;;;1.88;;
54899;SDS011;40801;41.924;25.562;2023-07-30T11:23:32;2.70;;;2.50;;
54899;SDS011;40801;41.924;25.562;2023-07-30T11:25:59;2.55;;;1.92;;
54899;SDS011;40801;41.924;25.562;2023-07-30T11:28:33;2.67;;;2.47;;
54899;SDS011;40801;41.924;25.562;2023-07-30T11:30:59;2.35;;;2.25;;
54899;SDS011;40801;41.924;25.562;2023-07-30T11:33:27;2.20;;;2.10;;
54899;SDS011;40801;41.924;25.562;2023-07-30T11:35:56;1.83;;;1.73;;
54899;SDS011;40801;41.924;25.562;2023-07-30T11:38:26;2.30;;;2.17;;
54899;SDS011;40801;41.924;25.562;2023-07-30T11:40:52;2.97;;;2.30;;
54899;SDS011;40801;41.924;25.562;2023-07-30T11:43:19;2.40;;;2.30;;
54899;SDS011;40801;41.924;25.562;2023-07-30T11:45:45;2.08;;;1.85;;
54899;SDS011;40801;41.924;25.562;2023-07-30T11:48:11;2.22;;;2.10;;
54899;SDS011;40801;41.924;25.562;2023-07-30T11:50:44;2.85;;;2.05;;
54899;SDS011;40801;41.924;25.562;2023-07-30T11:53:13;2.65;;;2.45;;
54899;SDS011;40801;41.924;25.562;2023-07-30T11:55:39;2.05;;;1.95;;
54899;SDS011;40801;41.924;25.562;2023-07-30T11:58:06;3.10;;;2.40;;
54899;SDS011;40801;41.924;25.562;2023-07-30T12:00:34;2.03;;;1.92;;
54899;SDS011;40801;41.924;25.562;2023-07-30T12:03:03;2.30;;;2.20;;
54899;SDS011;40801;41.924;25.562;2023-07-30T12:05:37;2.58;;;2.42;;
54899;SDS011;40801;41.924;25.562;2023-07-30T12:08:03;3.28;;;2.90;;
54899;SDS011;40801;41.924;25.562;2023-07-30T12:10:46;2.90;;;2.70;;
54899;SDS011;40801;41.924;25.562;2023-07-30T12:13:17;2.83;;;2.50;;
54899;SDS011;40801;41.924;25.562;2023-07-30T12:15:52;3.70;;;2.85;;
54899;SDS011;40801;41.924;25.562;2023-07-30T12:18:18;3.40;;;3.13;;
54899;SDS011;40801;41.924;25.562;2023-07-30T12:20:45;3.78;;;3.58;;
54899;SDS011;40801;41.924;25.562;2023-07-30T12:23:10;4.38;;;3.00;;
54899;SDS011;40801;41.924;25.562;2023-07-30T12:25:35;2.42;;;2.33;;
54899;SDS011;40801;41.924;25.562;2023-07-30T12:28:01;3.67;;;3.47;;
54899;SDS011;40801;41.924;25.562;2023-07-30T12:30:26;3.22;;;3.03;;
54899;SDS011;40801;41.924;25.562;2023-07-30T12:32:53;3.30;;;3.10;;
54899;SDS011;40801;41.924;25.562;2023-07-30T12:35:19;3.13;;;2.92;;
54899;SDS011;40801;41.924;25.562;2023-07-30T12:37:44;2.90;;;2.70;;
54899;SDS011;40801;41.924;25.562;2023-07-30T12:40:10;2.20;;;2.10;;
54899;SDS011;40801;41.924;25.562;2023-07-30T12:42:35;2.40;;;2.30;;
54899;SDS011;40801;41.924;25.562;2023-07-30T12:45:01;2.53;;;2.33;;
54899;SDS011;40801;41.924;25.562;2023-07-30T12:47:26;2.80;;;2.70;;
54899;SDS011;40801;41.924;25.562;2023-07-30T12:49:51;2.90;;;2.70;;
54899;SDS011;40801;41.924;25.562;2023-07-30T12:52:17;2.90;;;2.70;;
54899;SDS011;40801;41.924;25.562;2023-07-30T12:54:42;2.47;;;2.38;;
54899;SDS011;40801;41.924;25.562;2023-07-30T12:57:07;2.10;;;2.00;;
54899;SDS011;40801;41.924;25.562;2023-07-30T12:59:33;2.60;;;2.40;;
54899;SDS011;40801;41.924;25.562;2023-07-30T13:01:58;2.20;;;2.00;;
54899;SDS011;40801;41.924;25.562;2023-07-30T13:04:24;3.75;;;3.53;;
54899;SDS011;40801;41.924;25.562;2023-07-30T13:06:52;2.22;;;2.13;;
54899;SDS011;40801;41.924;25.562;2023-07-30T13:09:18;2.95;;;2.75;;
54899;SDS011;40801;41.924;25.562;2023-07-30T13:11:43;2.70;;;2.50;;
54899;SDS011;40801;41.924;25.562;2023-07-30T13:14:09;2.65;;;2.42;;
54899;SDS011;40801;41.924;25.562;2023-07-30T13:16:34;2.63;;;2.20;;
54899;SDS011;40801;41.924;25.562;2023-07-30T13:18:59;2.30;;;2.20;;
54899;SDS011;40801;41.924;25.562;2023-07-30T13:21:25;2.70;;;2.60;;
54899;SDS011;40801;41.924;25.562;2023-07-30T13:23:50;2.53;;;2.42;;
54899;SDS011;40801;41.924;25.562;2023-07-30T13:26:17;2.10;;;2.00;;
54899;SDS011;40801;41.924;25.562;2023-07-30T13:28:42;2.22;;;2.13;;
54899;SDS011;40801;41.924;25.562;2023-07-30T13:31:07;2.50;;;2.30;;
54899;SDS011;40801;41.924;25.562;2023-07-30T13:33:33;2.92;;;2.40;;
54899;SDS011;40801;41.924;25.562;2023-07-30T13:35:58;2.38;;;2.17;;
54899;SDS011;40801;41.924;25.562;2023-07-30T13:38:24;3.40;;;2.72;;
54899;SDS011;40801;41.924;25.562;2023-07-30T13:40:51;2.42;;;2.33;;
54899;SDS011;40801;41.924;25.562;2023-07-30T13:43:17;3.15;;;2.70;;
54899;SDS011;40801;41.924;25.562;2023-07-30T13:45:42;2.40;;;2.30;;
54899;SDS011;40801;41.924;25.562;2023-07-30T13:48:08;2.40;;;2.20;;
54899;SDS011;40801;41.924;25.562;2023-07-30T13:50:34;2.55;;;2.42;;
54899;SDS011;40801;41.924;25.562;2023-07-30T13:52:59;2.67;;;2.47;;
54899;SDS011;40801;41.924;25.562;2023-07-30T13:55:25;2.13;;;2.03;;
54899;SDS011;40801;41.924;25.562;2023-07-30T13:57:50;2.90;;;2.60;;
54899;SDS011;40801;41.924;25.562;2023-07-30T14:00:15;2.90;;;2.38;;
54899;SDS011;40801;41.924;25.562;2023-07-30T14:02:41;2.60;;;2.50;;
54899;SDS011;40801;41.924;25.562;2023-07-30T14:05:07;2.83;;;2.63;;
54899;SDS011;40801;41.924;25.562;2023-07-30T14:07:33;2.58;;;2.47;;
54899;SDS011;40801;41.924;25.562;2023-07-30T14:09:59;2.55;;;2.35;;
54899;SDS011;40801;41.924;25.562;2023-07-30T14:12:25;2.58;;;2.38;;
54899;SDS011;40801;41.924;25.562;2023-07-30T14:14:50;2.22;;;2.13;;
54899;SDS011;40801;41.924;25.562;2023-07-30T14:17:15;2.67;;;2.47;;
54899;SDS011;40801;41.924;25.562;2023-07-30T14:19:41;2.55;;;2.40;;
54899;SDS011;40801;41.924;25.562;2023-07-30T14:22:07;2.53;;;2.33;;
54899;SDS011;40801;41.924;25.562;2023-07-30T14:24:32;2.55;;;2.38;;
54899;SDS011;40801;41.924;25.562;2023-07-30T14:26:58;2.97;;;2.78;;
54899;SDS011;40801;41.924;25.562;2023-07-30T14:29:24;2.67;;;2.35;;
54899;SDS011;40801;41.924;25.562;2023-07-30T14:31:49;2.40;;;2.30;;
54899;SDS011;40801;41.924;25.562;2023-07-30T14:34:14;2.35;;;2.25;;